Canyon, Minnesota
Current Conditions -  °F | °C
As of 5:55 AM on Friday 24 Oct 2014 (Local Time) from KDLH Reporting Station
Haze Haze  
Wind Chill: 44°   Ceiling: Unl
Heat Index: 48°   Visibility: 4mi
Dew Point: 45°   Wind: 8mph
Humidity: 89%   Direction: 200°SSW
Pressure: 29.88"   Gusts: NA
Location:  47.04°N, 92.47°W
Report Text: KDLH 241055Z 20007KT 4SM BR CLR 09/07 A2988 RMK AO2 SLP126 T00890072
Loading
Personal Weather Stations






























Interactive Weather Map
Tropical Storm Tracking
New forecast layout! Learn more

10-Day Weather Forecast

Advertisements
Track Severe Weather on mobile